Time;durP1;ratioP1;P1;durP2;ratioP2;P2;SDS_P1;SDS_P2;PMS_P1;PMS_P2;Temp;Humidity;BMP_temperature;BMP_pressure;BME280_temperature;BME280_humidity;BME280_pressure;Samples;Min_cycle;Max_cycle;Signal;HPM_P1;HPM_P2
2023/05/12 00:04:03;;;;;;;;;;;;;;;9.71;100.00;97465.19;18569378;32;20349;-53
2023/05/12 00:14:06;;;;;;;;;;;;;;;9.67;100.00;97461.41;18569054;32;19963;-53
2023/05/12 00:24:09;;;;;;;;;;;;;;;9.66;100.00;97459.78;18568413;32;19952;-52
2023/05/12 00:34:12;;;;;;;;;;;;;;;9.61;100.00;97460.59;18567749;32;20291;-53
2023/05/12 00:44:14;;;;;;;;;;;;;;;9.65;100.00;97450.09;18567140;32;19961;-53
2023/05/12 00:54:17;;;;;;;;;;;;;;;9.73;100.00;97444.16;18566709;31;20005;-54
2023/05/12 01:04:20;;;;;;;;;;;;;;;9.74;100.00;97437.63;18566040;32;20242;-51
2023/05/12 01:14:23;;;;;;;;;;;;;;;9.68;100.00;97421.75;18565528;32;19995;-54
2023/05/12 01:24:28;;;;;;;;;;;;;;;9.59;100.00;97422.28;18550249;32;19956;-53
2023/05/12 01:34:31;;;;;;;;;;;;;;;9.44;100.00;97423.06;18564210;32;20246;-52
2023/05/12 01:44:33;;;;;;;;;;;;;;;9.25;100.00;97425.47;18548308;31;20397;-52
2023/05/12 01:54:36;;;;;;;;;;;;;;;9.11;100.00;97430.59;18562636;32;19952;-52
2023/05/12 02:04:39;;;;;;;;;;;;;;;9.08;100.00;97416.81;18562478;32;19960;-51
2023/05/12 02:14:41;;;;;;;;;;;;;;;9.10;100.00;97423.56;18562213;32;19948;-54
2023/05/12 02:24:44;;;;;;;;;;;;;;;9.18;100.00;97437.59;18561638;32;19949;-50
2023/05/12 02:34:47;;;;;;;;;;;;;;;9.16;100.00;97427.06;18561001;32;20003;-54
2023/05/12 02:44:49;;;;;;;;;;;;;;;9.15;100.00;97434.38;18560840;32;19964;-53
2023/05/12 02:54:51;;;;;;;;;;;;;;;9.19;100.00;97431.13;18560484;32;19992;-51
2023/05/12 03:04:53;;;;;;;;;;;;;;;9.24;100.00;97431.16;18557638;32;20276;-55
2023/05/12 03:14:56;;;;;;;;;;;;;;;9.30;100.00;97422.78;18572992;32;19952;-53
2023/05/12 03:24:59;;;;;;;;;;;;;;;9.29;100.00;97423.03;18572195;32;19964;-53
2023/05/12 03:35:01;;;;;;;;;;;;;;;9.37;100.00;97419.81;18571167;31;19990;-54
2023/05/12 03:45:05;;;;;;;;;;;;;;;9.42;100.00;97419.03;18570797;32;19956;-51
2023/05/12 03:55:08;;;;;;;;;;;;;;;9.50;100.00;97426.59;18555834;32;20276;-53
2023/05/12 04:05:11;;;;;;;;;;;;;;;9.53;100.00;97417.94;18569688;32;19956;-53
2023/05/12 04:15:13;;;;;;;;;;;;;;;9.54;100.00;97403.38;18568534;32;20299;-54
2023/05/12 04:25:16;;;;;;;;;;;;;;;9.56;100.00;97403.91;18568485;32;19953;-54
2023/05/12 04:35:19;;;;;;;;;;;;;;;9.60;100.00;97404.97;18553470;31;19952;-53
2023/05/12 04:45:21;;;;;;;;;;;;;;;9.69;100.00;97407.97;18567763;32;20283;-52
2023/05/12 04:55:24;;;;;;;;;;;;;;;9.89;100.00;97414.44;18566693;32;20347;-53
2023/05/12 05:05:27;;;;;;;;;;;;;;;10.01;100.00;97431.97;18566295;32;19956;-55
2023/05/12 05:15:30;;;;;;;;;;;;;;;10.26;100.00;97433.00;18565512;32;19956;-54
2023/05/12 05:25:32;;;;;;;;;;;;;;;10.53;100.00;97437.28;18564064;31;19988;-54
2023/05/12 05:35:35;;;;;;;;;;;;;;;10.72;100.00;97440.19;18536578;31;20265;-55
2023/05/12 05:45:38;;;;;;;;;;;;;;;10.82;100.00;97439.34;18549440;32;19979;-55
2023/05/12 05:55:43;;;;;;;;;;;;;;;11.02;100.00;97439.25;18563180;32;20029;-53
2023/05/12 06:05:46;;;;;;;;;;;;;;;11.20;100.00;97453.22;18548191;32;19957;-54
2023/05/12 06:15:49;;;;;;;;;;;;;;;11.37;100.00;97452.84;18561878;31;20009;-53
2023/05/12 06:25:52;;;;;;;;;;;;;;;11.41;100.00;97459.31;18561364;32;19995;-53
2023/05/12 06:35:56;;;;;;;;;;;;;;;11.34;100.00;97461.53;18560504;31;19956;-53
2023/05/12 06:45:59;;;;;;;;;;;;;;;11.43;100.00;97469.87;18546794;32;20250;-50
2023/05/12 06:56:03;;;;;;;;;;;;;;;11.75;100.00;97465.88;18560449;32;20264;-53
2023/05/12 07:06:06;;;;;;;;;;;;;;;12.05;100.00;97477.59;18560190;32;19988;-54
2023/05/12 07:16:11;;;;;;;;;;;;;;;12.33;100.00;97470.53;18545410;32;20000;-53
2023/05/12 07:26:20;;;;;;;;;;;;;;;12.75;100.00;97482.59;18545565;32;19987;-54
2023/05/12 07:36:23;;;;;;;;;;;;;;;13.16;100.00;97482.09;18558816;32;20272;-54
2023/05/12 07:46:26;;;;;;;;;;;;;;;13.90;100.00;97473.44;18563358;32;20242;-54
2023/05/12 07:56:29;;;;;;;;;;;;;;;14.55;100.00;97466.34;18555846;32;19940;-54
2023/05/12 08:06:33;;;;;;;;;;;;;;;14.29;100.00;97463.28;18569740;32;20272;-55
2023/05/12 08:16:36;;;;;;;;;;;;;;;13.96;100.00;97476.88;18569186;32;19989;-54
2023/05/12 08:26:41;;;;;;;;;;;;;;;13.76;100.00;97461.72;18568774;32;19980;-53
2023/05/12 08:36:46;;;;;;;;;;;;;;;13.79;100.00;97472.00;18567791;31;19965;-54
2023/05/12 08:46:51;;;;;;;;;;;;;;;14.08;100.00;97476.44;18567267;32;19983;-54
2023/05/12 08:56:55;;;;;;;;;;;;;;;14.23;100.00;97470.72;18566480;32;19971;-52
2023/05/12 09:07:02;;;;;;;;;;;;;;;14.30;100.00;97467.59;18566036;31;19992;-54
2023/05/12 09:17:05;;;;;;;;;;;;;;;14.29;100.00;97484.22;18551045;32;19948;-55
2023/05/12 09:27:09;;;;;;;;;;;;;;;14.69;100.00;97477.28;18564872;32;20020;-55
2023/05/12 09:37:13;;;;;;;;;;;;;;;14.72;100.00;97473.94;18549392;31;20002;-55
2023/05/12 09:47:16;;;;;;;;;;;;;;;14.53;100.00;97474.00;18563584;32;19967;-55
2023/05/12 09:57:21;;;;;;;;;;;;;;;14.98;100.00;97462.56;18548766;32;19984;-55
2023/05/12 10:07:26;;;;;;;;;;;;;;;15.88;100.00;97461.13;18562336;32;19952;-55
2023/05/12 10:17:30;;;;;;;;;;;;;;;16.78;100.00;97469.16;18561852;32;19961;-53
2023/05/12 10:27:39;;;;;;;;;;;;;;;16.97;100.00;97462.69;18547734;32;19949;-55
2023/05/12 10:37:43;;;;;;;;;;;;;;;17.48;100.00;97454.09;18547115;32;20329;-54
2023/05/12 10:47:47;;;;;;;;;;;;;;;18.04;94.20;97446.06;18560925;32;19971;-55
2023/05/12 10:57:51;;;;;;;;;;;;;;;17.97;99.31;97426.59;18560665;31;19948;-54
2023/05/12 11:07:57;;;;;;;;;;;;;;;18.94;84.11;97436.91;18560359;32;19963;-55
2023/05/12 11:18:02;;;;;;;;;;;;;;;18.98;83.27;97425.28;18561818;32;19956;-56
2023/05/12 11:28:11;;;;;;;;;;;;;;;19.47;79.83;97425.59;18571990;32;19975;-54
2023/05/12 11:38:17;;;;;;;;;;;;;;;19.97;64.74;97427.44;18571397;31;19953;-54
2023/05/12 11:48:22;;;;;;;;;;;;;;;19.66;82.24;97429.81;18571489;32;19948;-55
2023/05/12 11:58:26;;;;;;;;;;;;;;;19.07;74.97;97420.56;18570396;32;19952;-55
2023/05/12 12:08:28;;;;;;;;;;;;;;;19.05;80.87;97423.63;18570129;31;19988;-55
2023/05/12 12:18:32;;;;;;;;;;;;;;;20.84;66.36;97429.56;18569476;32;19964;-55
2023/05/12 12:28:35;;;;;;;;;;;;;;;20.97;62.67;97429.22;18568644;32;19963;-54
2023/05/12 12:38:38;;;;;;;;;;;;;;;21.04;66.28;97419.59;18567326;31;19969;-54
2023/05/12 12:48:41;;;;;;;;;;;;;;;20.59;65.44;97410.31;18567372;32;20268;-54
2023/05/12 12:58:44;;;;;;;;;;;;;;;21.02;64.52;97411.69;18566480;32;19953;-54
2023/05/12 13:08:49;;;;;;;;;;;;;;;21.59;59.81;97411.84;18552146;32;19945;-53
2023/05/12 13:18:52;;;;;;;;;;;;;;;22.59;62.61;97401.91;18565311;32;20008;-51
2023/05/12 13:28:56;;;;;;;;;;;;;;;21.66;52.98;97404.56;18564683;32;19996;-55
2023/05/12 13:38:59;;;;;;;;;;;;;;;21.92;50.65;97384.03;18563939;31;19981;-54
2023/05/12 13:49:02;;;;;;;;;;;;;;;24.08;53.38;97371.66;18548591;32;19964;-54
2023/05/12 13:59:07;;;;;;;;;;;;;;;24.52;48.85;97381.47;18563332;32;20365;-55
2023/05/12 14:09:11;;;;;;;;;;;;;;;23.99;48.46;97371.87;18562731;32;20272;-55
2023/05/12 14:19:15;;;;;;;;;;;;;;;23.85;45.95;97375.12;18548005;32;20336;-55
2023/05/12 14:29:20;;;;;;;;;;;;;;;22.48;49.78;97361.13;18561428;32;19968;-56
2023/05/12 14:39:22;;;;;;;;;;;;;;;22.43;43.23;97369.66;18560612;32;20286;-55
2023/05/12 14:49:25;;;;;;;;;;;;;;;23.21;47.16;97355.31;18560730;32;20016;-55
2023/05/12 14:59:29;;;;;;;;;;;;;;;23.21;46.11;97352.56;18556685;32;20121;-55
2023/05/12 15:09:31;;;;;;;;;;;;;;;21.92;54.39;97362.03;18558935;32;20011;-52
2023/05/12 15:19:35;;;;;;;;;;;;;;;21.15;55.56;97371.25;18558169;32;19945;-53
2023/05/12 15:29:39;;;;;;;;;;;;;;;20.30;56.36;97359.94;18571967;31;19976;-55
2023/05/12 15:39:43;;;;;;;;;;;;;;;19.79;56.28;97371.91;18571276;32;19976;-54
2023/05/12 15:49:47;;;;;;;;;;;;;;;18.85;66.25;97373.09;18557187;32;19996;-54
2023/05/12 15:59:58;;;;;;;;;;;;;;;18.32;70.09;97367.09;18570321;32;20238;-53
2023/05/12 16:10:02;;;;;;;;;;;;;;;18.46;63.82;97361.41;18569175;32;20015;-54
2023/05/12 16:20:08;;;;;;;;;;;;;;;18.68;66.30;97373.19;18555539;32;20336;-54
2023/05/12 16:30:12;;;;;;;;;;;;;;;19.39;65.48;97363.41;18568431;32;19969;-55
2023/05/12 16:40:15;;;;;;;;;;;;;;;18.79;67.64;97368.97;18553653;32;19968;-54
2023/05/12 16:50:19;;;;;;;;;;;;;;;18.34;78.80;97364.84;18567750;32;19953;-54
2023/05/12 17:00:22;;;;;;;;;;;;;;;18.14;85.84;97365.56;18552711;32;20306;-53
2023/05/12 17:10:25;;;;;;;;;;;;;;;18.00;91.21;97365.75;18566947;32;20314;-55
2023/05/12 17:20:28;;;;;;;;;;;;;;;17.24;92.79;97374.19;18565275;31;19979;-53
2023/05/12 17:30:31;;;;;;;;;;;;;;;16.77;99.29;97377.47;18564751;32;19965;-54
2023/05/12 17:40:34;;;;;;;;;;;;;;;16.27;100.00;97370.38;18564217;32;19975;-55
2023/05/12 17:50:38;;;;;;;;;;;;;;;16.01;100.00;97375.72;18563587;32;20268;-55
2023/05/12 18:00:42;;;;;;;;;;;;;;;15.87;100.00;97383.19;18562729;32;19998;-54
2023/05/12 18:10:50;;;;;;;;;;;;;;;15.71;100.00;97386.25;18548981;32;20367;-54
2023/05/12 18:20:53;;;;;;;;;;;;;;;15.58;100.00;97392.56;18561983;32;19957;-54
2023/05/12 18:30:56;;;;;;;;;;;;;;;15.29;100.00;97399.22;18561402;32;19953;-55
2023/05/12 18:41:14;;;;;;;;;;;;;;;14.91;100.00;97413.97;18561032;32;19949;-55
2023/05/12 18:51:16;;;;;;;;;;;;;;;14.51;100.00;97410.94;18546678;32;19948;-55
2023/05/12 19:01:19;;;;;;;;;;;;;;;14.14;100.00;97426.31;18546573;32;19974;-55
2023/05/12 19:11:25;;;;;;;;;;;;;;;13.93;100.00;97435.91;18533261;32;19967;-55
2023/05/12 19:21:28;;;;;;;;;;;;;;;13.73;100.00;97435.13;18559917;32;20289;-55
2023/05/12 19:31:32;;;;;;;;;;;;;;;13.66;100.00;97456.44;18559753;32;19960;-54
2023/05/12 19:41:38;;;;;;;;;;;;;;;13.59;100.00;97469.59;18548361;32;19981;-54
2023/05/12 19:51:41;;;;;;;;;;;;;;;13.50;100.00;97474.88;18570830;32;20264;-55
2023/05/12 20:01:45;;;;;;;;;;;;;;;13.35;100.00;97484.03;18569936;31;19967;-55
2023/05/12 20:11:48;;;;;;;;;;;;;;;13.25;100.00;97495.84;18569892;32;19986;-53
2023/05/12 20:21:51;;;;;;;;;;;;;;;13.14;100.00;97500.59;18555083;32;19956;-55
2023/05/12 20:31:54;;;;;;;;;;;;;;;13.03;100.00;97505.34;18554575;32;20306;-53
2023/05/12 20:41:58;;;;;;;;;;;;;;;12.91;100.00;97512.25;18540416;32;19975;-55
2023/05/12 20:52:01;;;;;;;;;;;;;;;12.78;100.00;97525.41;18567022;32;19971;-55
2023/05/12 21:02:04;;;;;;;;;;;;;;;12.71;100.00;97528.47;18566517;32;19956;-54
2023/05/12 21:12:07;;;;;;;;;;;;;;;12.72;100.00;97534.72;18566162;32;19996;-54
2023/05/12 21:22:11;;;;;;;;;;;;;;;12.70;100.00;97540.44;18565491;32;20048;-55
2023/05/12 21:32:15;;;;;;;;;;;;;;;12.65;100.00;97542.38;18565162;32;19945;-55
2023/05/12 21:42:19;;;;;;;;;;;;;;;12.61;100.00;97546.75;18563912;32;19971;-53
2023/05/12 21:52:23;;;;;;;;;;;;;;;12.49;100.00;97555.28;18563666;32;19995;-54
2023/05/12 22:02:27;;;;;;;;;;;;;;;12.39;100.00;97550.75;18562318;32;19982;-55
2023/05/12 22:12:31;;;;;;;;;;;;;;;12.33;100.00;97546.47;18562505;32;20381;-54
2023/05/12 22:22:36;;;;;;;;;;;;;;;12.24;100.00;97548.97;18548025;32;20345;-55
2023/05/12 22:32:39;;;;;;;;;;;;;;;12.11;100.00;97555.84;18562031;32;19952;-55
2023/05/12 22:42:42;;;;;;;;;;;;;;;11.98;100.00;97556.50;18560759;32;20242;-55
2023/05/12 22:52:45;;;;;;;;;;;;;;;11.82;100.00;97564.69;18561284;32;19978;-55
2023/05/12 23:02:48;;;;;;;;;;;;;;;11.68;100.00;97552.88;18560572;32;20268;-56
2023/05/12 23:12:50;;;;;;;;;;;;;;;11.58;100.00;97552.91;18560463;32;19992;-55
2023/05/12 23:22:53;;;;;;;;;;;;;;;11.44;100.00;97552.72;18572715;32;19983;-55
2023/05/12 23:32:55;;;;;;;;;;;;;;;11.45;100.00;97560.56;18572402;32;19960;-54
2023/05/12 23:43:00;;;;;;;;;;;;;;;11.58;100.00;97558.31;18571318;32;20325;-55
2023/05/12 23:53:02;;;;;;;;;;;;;;;11.74;100.00;97565.28;18571052;32;20016;-56
